Time;durP1;ratioP1;P1;durP2;ratioP2;P2;SDS_P1;SDS_P2;PMS_P1;PMS_P2;Temp;Humidity;BMP_temperature;BMP_pressure;BME280_temperature;BME280_humidity;BME280_pressure;Samples;Min_cycle;Max_cycle;Signal;HPM_P1;HPM_P2
2022/01/01 00:01:34;;;;;;;32.50;19.17;;;;;;;0.01;84.49;100467.52;1700044;84;20956;-87
2022/01/01 00:04:01;;;;;;;33.98;19.42;;;;;;;0.07;84.45;100471.25;1700157;84;20932;-82
2022/01/01 00:06:28;;;;;;;31.02;18.48;;;;;;;0.11;84.45;100472.48;1700385;84;21485;-85
2022/01/01 00:08:56;;;;;;;39.60;20.92;;;;;;;0.14;84.33;100470.28;1700294;84;21549;-83
2022/01/01 00:11:23;;;;;;;35.70;19.87;;;;;;;0.15;84.11;100467.64;1702110;84;21139;-77
2022/01/01 00:13:50;;;;;;;34.70;20.25;;;;;;;0.16;84.08;100463.36;1701668;84;20979;-82
2022/01/01 00:16:17;;;;;;;36.65;20.08;;;;;;;0.17;84.11;100468.47;1700147;84;20905;-81
2022/01/01 00:18:45;;;;;;;37.58;20.40;;;;;;;0.20;84.07;100464.97;1700078;84;20948;-81
2022/01/01 00:21:12;;;;;;;31.70;18.60;;;;;;;0.25;84.16;100457.17;1700059;84;20971;-81
2022/01/01 00:23:39;;;;;;;97.65;46.92;;;;;;;0.29;84.08;100458.38;1699996;84;21987;-83
2022/01/01 00:26:06;;;;;;;37.55;22.05;;;;;;;0.33;84.04;100457.41;1700233;84;20947;-83
2022/01/01 00:28:34;;;;;;;43.78;22.32;;;;;;;0.36;84.04;100453.94;1700355;84;20933;-82
2022/01/01 00:31:01;;;;;;;39.95;20.80;;;;;;;0.37;84.00;100447.44;1702185;84;20974;-80
2022/01/01 00:33:29;;;;;;;36.35;20.00;;;;;;;0.40;83.95;100440.06;1701507;84;21043;-80
2022/01/01 00:35:57;;;;;;;39.20;18.98;;;;;;;0.45;83.78;100437.42;1700649;84;20861;-82
2022/01/01 00:38:24;;;;;;;38.53;22.75;;;;;;;0.45;83.66;100432.27;1700435;84;20968;-80
2022/01/01 00:40:51;;;;;;;43.05;23.15;;;;;;;0.44;83.67;100429.26;1700207;84;21335;-81
2022/01/01 00:43:20;;;;;;;34.08;18.75;;;;;;;0.45;83.75;100421.49;1700305;84;20920;-82
2022/01/01 00:45:46;;;;;;;44.10;22.42;;;;;;;0.50;83.87;100417.08;1700028;84;20975;-81
2022/01/01 00:48:13;;;;;;;38.58;19.92;;;;;;;0.54;83.89;100414.84;1700416;84;21697;-78
2022/01/01 00:50:41;;;;;;;36.60;19.73;;;;;;;0.57;83.75;100416.05;1700183;84;21497;-79
2022/01/01 00:53:07;;;;;;;39.03;20.43;;;;;;;0.56;83.79;100403.20;1700300;84;20949;-79
2022/01/01 00:55:34;;;;;;;40.80;20.85;;;;;;;0.56;83.93;100394.17;1700042;83;20989;-79
2022/01/01 00:58:01;;;;;;;44.85;21.42;;;;;;;0.56;84.06;100386.44;1700550;84;21126;-79
2022/01/01 01:00:28;;;;;;;41.92;23.02;;;;;;;0.56;84.00;100387.73;1700199;84;21140;-79
2022/01/01 01:02:55;;;;;;;37.15;19.98;;;;;;;0.57;83.92;100377.34;1700237;84;20901;-79
2022/01/01 01:05:21;;;;;;;37.63;20.17;;;;;;;0.59;84.01;100374.30;1699992;83;20920;-78
2022/01/01 01:07:49;;;;;;;35.25;20.60;;;;;;;0.65;84.17;100369.45;1700140;84;20904;-79
2022/01/01 01:10:15;;;;;;;38.30;19.40;;;;;;;0.73;84.37;100369.25;1700271;84;20996;-77
2022/01/01 01:12:47;;;;;;;39.13;21.17;;;;;;;0.75;84.34;100363.17;1700182;84;21171;-78
2022/01/01 01:15:17;;;;;;;43.10;21.70;;;;;;;0.78;84.38;100357.95;1699006;83;21539;-77
2022/01/01 01:17:48;;;;;;;38.73;18.62;;;;;;;0.80;84.29;100346.28;1697669;84;20893;-78
2022/01/01 01:20:16;;;;;;;40.63;21.73;;;;;;;0.83;84.13;100338.48;1697427;83;20992;-79
2022/01/01 01:22:43;;;;;;;33.85;19.57;;;;;;;0.82;83.87;100329.03;1697979;84;20979;-78
2022/01/01 01:25:10;;;;;;;38.75;21.12;;;;;;;0.80;83.86;100331.67;1697656;84;21148;-79
2022/01/01 01:27:37;;;;;;;31.90;18.32;;;;;;;0.80;83.99;100318.77;1697732;84;20933;-80
2022/01/01 01:30:13;;;;;;;37.50;20.23;;;;;;;0.79;84.15;100320.92;1697587;84;21529;-79
2022/01/01 01:32:41;;;;;;;49.70;24.52;;;;;;;0.78;84.26;100310.20;1697612;84;20944;-79
2022/01/01 01:35:09;;;;;;;50.52;28.25;;;;;;;0.79;84.25;100310.59;1697834;84;20917;-78
2022/01/01 01:37:37;;;;;;;50.60;30.75;;;;;;;0.80;84.16;100303.28;1698114;84;21200;-79
2022/01/01 01:40:07;;;;;;;34.88;20.05;;;;;;;0.81;84.15;100294.63;1700110;84;21000;-75
2022/01/01 01:42:34;;;;;;;35.80;20.90;;;;;;;0.85;84.11;100290.70;1698706;84;20916;-79
2022/01/01 01:45:11;;;;;;;36.23;19.32;;;;;;;0.86;84.15;100291.93;1697822;84;20941;-77
2022/01/01 01:47:37;;;;;;;34.83;20.43;;;;;;;0.91;84.19;100291.81;1697534;84;20898;-78
2022/01/01 01:50:06;;;;;;;41.40;23.77;;;;;;;0.94;84.11;100293.88;1697719;84;22052;-77
2022/01/01 01:52:36;;;;;;;38.65;22.22;;;;;;;0.98;84.22;100291.63;1697672;84;21004;-80
2022/01/01 01:55:05;;;;;;;35.23;19.60;;;;;;;1.02;84.17;100289.80;1655862;84;21020;-81
2022/01/01 01:57:31;;;;;;;33.70;19.77;;;;;;;1.05;84.01;100287.61;1700579;84;20984;-80
2022/01/01 01:59:58;;;;;;;32.48;19.12;;;;;;;1.08;83.68;100286.22;1700947;83;20932;-79
2022/01/01 02:02:27;;;;;;;27.37;18.12;;;;;;;1.06;83.63;100284.97;1701100;83;21090;-80
2022/01/01 02:04:54;;;;;;;35.15;21.35;;;;;;;1.09;83.51;100278.87;1700969;83;20976;-80
2022/01/01 02:07:20;;;;;;;29.65;16.87;;;;;;;1.07;83.50;100275.05;1681463;84;20910;-79
2022/01/01 02:09:49;;;;;;;27.13;18.05;;;;;;;1.06;83.50;100267.34;1700435;84;21015;-78
2022/01/01 02:12:16;;;;;;;28.95;17.80;;;;;;;1.02;83.46;100260.98;1699519;84;20912;-79
2022/01/01 02:15:06;;;;;;;27.40;16.77;;;;;;;1.00;83.43;100255.42;1699127;84;21087;-79
2022/01/01 02:17:19;;;;;;;25.57;15.95;;;;;;;0.98;83.39;100249.03;1696704;84;21050;-78
2022/01/01 02:20:00;;;;;;;31.05;17.05;;;;;;;0.94;83.22;100244.84;1698806;84;20944;-79
2022/01/01 02:22:24;;;;;;;22.75;14.28;;;;;;;0.91;83.32;100247.92;1698079;84;20980;-77
2022/01/01 02:24:53;;;;;;;19.90;13.32;;;;;;;0.87;83.41;100234.69;1698253;84;20933;-76
2022/01/01 02:27:20;;;;;;;26.30;16.15;;;;;;;0.86;83.63;100225.27;1696928;84;21854;-79
2022/01/01 02:29:47;;;;;;;25.97;16.85;;;;;;;0.84;83.80;100214.98;1696738;84;21214;-79
2022/01/01 02:32:15;;;;;;;28.87;18.48;;;;;;;0.83;83.91;100210.27;1696708;84;20917;-78
2022/01/01 02:34:42;;;;;;;27.93;17.05;;;;;;;0.83;84.00;100202.98;1696489;84;21043;-79
2022/01/01 02:37:09;;;;;;;26.42;16.42;;;;;;;0.84;84.04;100209.81;1696556;84;20909;-80
2022/01/01 02:39:36;;;;;;;23.57;14.87;;;;;;;0.84;84.00;100199.49;1696629;84;21737;-79
2022/01/01 02:42:06;;;;;;;26.82;15.55;;;;;;;0.88;84.08;100189.94;1696153;84;21027;-79
2022/01/01 02:44:33;;;;;;;24.57;16.05;;;;;;;0.90;84.19;100189.01;1676954;84;20973;-80
2022/01/01 02:47:00;;;;;;;29.15;17.30;;;;;;;0.93;84.31;100183.75;1695794;84;21028;-79
2022/01/01 02:49:27;;;;;;;26.20;15.13;;;;;;;0.98;84.49;100187.08;1695860;84;20913;-79
2022/01/01 02:51:55;;;;;;;27.58;17.25;;;;;;;1.03;84.68;100178.75;1695580;84;20979;-78
2022/01/01 02:54:22;;;;;;;24.37;15.63;;;;;;;1.08;84.60;100181.20;1695861;84;20956;-78
2022/01/01 02:56:49;;;;;;;24.65;15.53;;;;;;;1.12;84.58;100171.19;1695814;84;20881;-79
2022/01/01 02:59:16;;;;;;;25.27;16.35;;;;;;;1.15;84.40;100167.67;1695827;84;20976;-79
2022/01/01 03:01:43;;;;;;;22.35;14.53;;;;;;;1.15;84.25;100167.22;1695613;84;20996;-80
2022/01/01 03:04:10;;;;;;;24.15;16.00;;;;;;;1.14;84.28;100163.41;1695748;84;21200;-79
2022/01/01 03:06:37;;;;;;;29.87;17.07;;;;;;;1.12;84.30;100150.98;1696480;84;20953;-77
2022/01/01 03:09:05;;;;;;;25.52;16.32;;;;;;;1.11;84.47;100153.14;1697738;84;20949;-77
2022/01/01 03:11:33;;;;;;;25.80;15.88;;;;;;;1.11;84.57;100149.27;1696170;84;21027;-80
2022/01/01 03:14:01;;;;;;;24.90;16.10;;;;;;;1.10;84.68;100142.44;1695979;84;20858;-80
2022/01/01 03:16:30;;;;;;;25.62;15.23;;;;;;;1.11;84.70;100142.81;1698738;84;21151;-80
2022/01/01 03:18:57;;;;;;;24.98;16.10;;;;;;;1.12;84.68;100130.33;1700266;84;21335;-79
2022/01/01 03:21:24;;;;;;;25.82;16.48;;;;;;;1.11;84.63;100127.33;1700196;84;20940;-79
2022/01/01 03:23:51;;;;;;;22.90;14.10;;;;;;;1.12;84.70;100122.58;1700283;84;20900;-79
2022/01/01 03:26:17;;;;;;;23.87;14.68;;;;;;;1.13;84.78;100118.64;1700347;84;21342;-79
2022/01/01 03:28:44;;;;;;;21.15;14.90;;;;;;;1.17;84.91;100116.83;1700383;83;21085;-80
2022/01/01 03:31:11;;;;;;;25.60;15.35;;;;;;;1.22;85.06;100114.94;1700197;83;20925;-79
2022/01/01 03:33:39;;;;;;;26.27;15.80;;;;;;;1.26;85.09;100107.96;1700604;83;20917;-80
2022/01/01 03:36:07;;;;;;;21.15;15.18;;;;;;;1.31;85.09;100109.53;1700358;84;21000;-80
2022/01/01 03:38:34;;;;;;;22.52;14.93;;;;;;;1.35;84.92;100111.10;1700784;83;20992;-78
2022/01/01 03:41:50;;;;;;;24.00;16.15;;;;;;;1.41;84.76;100104.47;1884956;75;22377;-79
2022/01/01 03:44:17;;;;;;;20.05;13.95;;;;;;;1.36;84.58;100103.77;1861147;77;20906;-79
2022/01/01 03:46:44;;;;;;;21.87;14.23;;;;;;;1.36;84.61;100092.59;1860620;77;21072;-77
2022/01/01 03:49:11;;;;;;;22.58;14.00;;;;;;;1.38;84.69;100089.06;1860438;77;20856;-77
2022/01/01 03:51:39;;;;;;;20.62;14.20;;;;;;;1.39;84.76;100086.88;1860528;77;20887;-80
2022/01/01 03:54:07;;;;;;;22.32;15.38;;;;;;;1.39;84.88;100079.58;1860903;77;20931;-79
2022/01/01 03:56:37;;;;;;;22.52;15.10;;;;;;;1.39;84.96;100083.45;1860569;77;20883;-80
2022/01/01 03:59:03;;;;;;;22.30;14.18;;;;;;;1.41;84.97;100080.38;1860758;77;21142;-80
2022/01/01 04:01:32;;;;;;;18.92;13.40;;;;;;;1.41;84.91;100080.38;1860610;76;20871;-80
2022/01/01 04:03:59;;;;;;;16.37;12.33;;;;;;;1.41;84.76;100076.50;1860755;76;20886;-80
2022/01/01 04:06:26;;;;;;;14.35;10.82;;;;;;;1.41;84.74;100069.59;1860690;77;21453;-79
2022/01/01 04:08:53;;;;;;;17.42;12.28;;;;;;;1.39;84.80;100076.54;1860449;77;21114;-78
2022/01/01 04:11:21;;;;;;;13.48;9.90;;;;;;;1.39;84.87;100063.63;1860618;76;21100;-78
2022/01/01 04:13:48;;;;;;;18.77;12.50;;;;;;;1.43;85.01;100061.34;1860295;77;20855;-77
2022/01/01 04:16:17;;;;;;;15.20;10.20;;;;;;;1.50;85.26;100055.54;1860541;77;20898;-79
2022/01/01 04:18:45;;;;;;;13.05;9.60;;;;;;;1.59;85.29;100057.83;1860268;77;20915;-79
2022/01/01 04:21:14;;;;;;;11.55;9.68;;;;;;;1.64;85.17;100053.34;1860467;77;20981;-78
2022/01/01 04:23:45;;;;;;;12.05;9.25;;;;;;;1.68;85.09;100049.39;1860352;77;22066;-78
2022/01/01 04:26:12;;;;;;;9.75;6.75;;;;;;;1.69;84.83;100053.22;1860270;77;21538;-77
2022/01/01 04:28:41;;;;;;;11.75;8.88;;;;;;;1.66;84.68;100045.09;1860371;77;20871;-78
2022/01/01 04:31:08;;;;;;;10.90;8.35;;;;;;;1.65;84.53;100049.88;1860277;77;20906;-78
2022/01/01 04:33:35;;;;;;;11.73;8.35;;;;;;;1.62;84.48;100047.41;1860963;77;20993;-78
2022/01/01 04:36:03;;;;;;;8.35;6.67;;;;;;;1.63;84.57;100044.37;1863789;77;21031;-77
2022/01/01 04:38:39;;;;;;;9.20;7.15;;;;;;;1.68;84.65;100039.05;1861048;77;20859;-78
2022/01/01 04:41:15;;;;;;;;;;;;;;;1.71;84.74;100031.18;1862653;77;20934;-78
2022/01/01 04:43:41;;;;;;;11.03;8.33;;;;;;;1.75;84.96;100036.20;1859885;77;20107;-80
2022/01/01 04:46:08;;;;;;;9.83;7.60;;;;;;;1.76;84.86;100040.48;1860602;77;21316;-78
2022/01/01 04:48:37;;;;;;;10.45;8.13;;;;;;;1.78;84.96;100042.58;1860476;77;21158;-79
2022/01/01 04:51:08;;;;;;;11.78;9.00;;;;;;;1.83;84.94;100045.84;1860826;77;20981;-77
2022/01/01 04:53:35;;;;;;;11.25;7.78;;;;;;;1.88;84.76;100045.69;1860273;77;20962;-77
2022/01/01 04:56:06;;;;;;;9.75;7.12;;;;;;;1.91;84.70;100035.23;1859855;76;20935;-78
2022/01/01 04:58:32;;;;;;;10.98;8.50;;;;;;;1.95;84.55;100029.52;1859418;77;20839;-78
2022/01/01 05:00:59;;;;;;;9.35;7.00;;;;;;;1.95;84.57;100027.77;1860059;76;21940;-78
2022/01/01 05:03:26;;;;;;;12.25;8.65;;;;;;;1.97;84.59;100022.10;1859702;76;20935;-80
2022/01/01 05:05:53;;;;;;;10.23;7.90;;;;;;;1.98;84.65;100018.64;1860284;76;20951;-80
2022/01/01 05:08:20;;;;;;;9.98;7.30;;;;;;;1.98;84.41;100010.88;1859938;77;20832;-80
2022/01/01 05:10:47;;;;;;;12.82;8.00;;;;;;;1.94;84.08;100003.28;1860100;76;20907;-78
2022/01/01 05:13:15;;;;;;;12.13;8.73;;;;;;;1.93;84.09;99993.82;1859830;77;21992;-79
2022/01/01 05:15:43;;;;;;;10.55;7.60;;;;;;;1.91;83.91;99985.27;1859915;76;21663;-80
2022/01/01 05:18:10;;;;;;;11.25;8.03;;;;;;;1.89;83.93;99981.89;1859732;77;20990;-79
2022/01/01 05:20:37;;;;;;;10.55;8.33;;;;;;;1.83;83.94;99976.05;1859853;77;20966;-78
2022/01/01 05:23:04;;;;;;;12.55;8.08;;;;;;;1.81;84.12;99970.53;1859981;76;20916;-79
2022/01/01 05:25:31;;;;;;;10.65;7.65;;;;;;;1.81;84.34;99962.33;1860386;77;21751;-80
2022/01/01 05:27:59;;;;;;;10.15;7.35;;;;;;;1.84;84.62;99963.95;1859683;77;20887;-78
2022/01/01 05:30:27;;;;;;;10.88;6.85;;;;;;;1.86;84.58;99965.59;1828949;77;20962;-79
2022/01/01 05:32:54;;;;;;;9.05;6.65;;;;;;;1.88;84.59;99968.58;1859621;77;21067;-79
2022/01/01 05:35:20;;;;;;;8.95;6.40;;;;;;;1.87;84.40;99965.16;1860242;77;20840;-78
2022/01/01 05:37:49;;;;;;;8.78;7.22;;;;;;;1.88;84.35;99969.87;1860201;77;21203;-78
2022/01/01 05:40:16;;;;;;;9.63;6.55;;;;;;;1.89;84.35;99963.80;1859241;77;20919;-79
2022/01/01 05:42:44;;;;;;;9.90;6.65;;;;;;;1.88;84.30;99966.84;1848922;77;20952;-78
2022/01/01 05:45:12;;;;;;;7.90;5.95;;;;;;;1.88;84.45;99972.00;1849047;77;20916;-79
2022/01/01 05:47:39;;;;;;;8.70;6.33;;;;;;;1.89;84.59;99966.38;1848889;77;21386;-77
2022/01/01 05:50:08;;;;;;;7.80;6.17;;;;;;;1.89;84.62;99963.80;1849360;76;21111;-78
2022/01/01 05:52:35;;;;;;;7.55;6.30;;;;;;;1.89;84.77;99975.00;1849132;77;20921;-78
2022/01/01 05:55:02;;;;;;;8.85;6.95;;;;;;;1.91;84.83;99973.64;1849364;77;20873;-78
2022/01/01 05:57:30;;;;;;;8.03;6.10;;;;;;;1.96;84.83;99973.89;1848918;77;20885;-78
2022/01/01 05:59:56;;;;;;;7.65;5.83;;;;;;;1.99;84.67;99973.77;1849377;77;21463;-80
2022/01/01 06:02:24;;;;;;;7.30;6.05;;;;;;;2.00;84.64;99975.47;1850743;77;21132;-78
2022/01/01 06:04:53;;;;;;;6.78;5.67;;;;;;;2.02;84.88;99980.14;1850206;77;21027;-81
2022/01/01 06:07:19;;;;;;;8.63;5.47;;;;;;;2.08;84.92;99978.61;1849386;77;20908;-80
2022/01/01 06:09:51;;;;;;;5.60;4.62;;;;;;;2.14;84.94;99974.98;1848974;77;21364;-80
2022/01/01 06:12:20;;;;;;;7.85;5.85;;;;;;;2.18;84.97;99988.63;1848932;77;20882;-81
2022/01/01 06:14:49;;;;;;;6.72;5.75;;;;;;;2.22;85.18;99977.27;1849014;77;20847;-80
2022/01/01 06:17:16;;;;;;;6.60;5.58;;;;;;;2.27;85.02;99974.09;1849104;77;21060;-80
2022/01/01 06:19:43;;;;;;;8.20;6.75;;;;;;;2.25;84.83;99975.89;1849290;77;20996;-82
2022/01/01 06:22:10;;;;;;;8.28;6.83;;;;;;;2.23;84.66;99976.39;1849118;77;20870;-79
2022/01/01 06:24:37;;;;;;;9.15;7.50;;;;;;;2.20;84.41;99977.77;1849247;77;21486;-78
2022/01/01 06:27:04;;;;;;;8.95;6.95;;;;;;;2.16;84.27;99983.53;1848954;77;21129;-80
2022/01/01 06:29:33;;;;;;;8.13;6.15;;;;;;;2.11;84.30;99972.94;1849014;77;20968;-81
2022/01/01 06:32:00;;;;;;;8.40;6.45;;;;;;;2.04;84.30;99964.09;1848972;77;21344;-81
2022/01/01 06:34:27;;;;;;;9.15;6.70;;;;;;;1.98;84.41;99963.05;1849338;76;20901;-81
2022/01/01 06:36:54;;;;;;;10.55;7.25;;;;;;;1.93;84.60;99961.05;1849394;77;20889;-82
2022/01/01 06:39:22;;;;;;;8.05;6.17;;;;;;;1.93;84.80;99951.16;1849257;77;20826;-81
2022/01/01 06:41:51;;;;;;;8.70;6.75;;;;;;;1.93;84.88;99954.58;1855570;75;21388;-79
2022/01/01 06:44:18;;;;;;;9.25;7.55;;;;;;;1.91;84.95;99949.91;1860101;77;20871;-80
2022/01/01 06:46:46;;;;;;;11.28;8.93;;;;;;;1.92;85.03;99959.83;1860364;76;20879;-81
2022/01/01 06:49:15;;;;;;;8.25;7.05;;;;;;;1.94;85.22;99954.16;1859893;77;20863;-81
2022/01/01 06:51:42;;;;;;;8.00;6.17;;;;;;;1.95;85.21;99946.33;1859767;77;22002;-80
2022/01/01 06:54:09;;;;;;;7.95;6.67;;;;;;;1.95;85.25;99941.16;1859724;77;20883;-83
2022/01/01 06:56:37;;;;;;;7.92;7.12;;;;;;;1.98;85.32;99938.91;1859937;77;21394;-82
2022/01/01 06:59:03;;;;;;;7.75;6.70;;;;;;;1.96;85.25;99927.34;1860603;76;20993;-81
2022/01/01 07:01:30;;;;;;;8.35;6.03;;;;;;;1.98;85.32;99916.92;1859949;77;20864;-80
2022/01/01 07:03:57;;;;;;;10.30;7.15;;;;;;;2.01;85.41;99916.83;1860035;77;21349;-81
2022/01/01 07:06:24;;;;;;;6.47;5.45;;;;;;;2.03;85.52;99915.04;1859736;77;20927;-81
2022/01/01 07:08:51;;;;;;;8.48;6.12;;;;;;;2.03;85.46;99911.16;1859707;77;20993;-82
2022/01/01 07:11:21;;;;;;;9.48;6.05;;;;;;;1.98;85.41;99904.86;1859764;77;20962;-84
2022/01/01 07:13:50;;;;;;;9.28;6.17;;;;;;;1.98;85.36;99910.03;1860228;76;20835;-84
2022/01/01 07:16:23;;;;;;;9.18;6.08;;;;;;;1.99;85.29;99909.13;1730156;82;20996;-82
2022/01/01 07:18:51;;;;;;;9.60;5.95;;;;;;;1.96;85.31;99910.54;1695025;84;20888;-83
2022/01/01 07:21:18;;;;;;;7.50;6.10;;;;;;;2.00;85.44;99916.00;1669895;86;20911;-82
2022/01/01 07:23:47;;;;;;;7.67;5.95;;;;;;;2.03;85.48;99910.70;1694944;84;21495;-82
2022/01/01 07:26:14;;;;;;;8.93;6.92;;;;;;;2.06;85.55;99917.50;1694557;84;21031;-84
2022/01/01 07:28:44;;;;;;;11.85;6.60;;;;;;;2.11;85.50;99910.87;1697261;84;21694;-82
2022/01/01 07:31:11;;;;;;;9.80;6.87;;;;;;;2.16;85.56;99906.39;1697355;84;20943;-81
2022/01/01 07:33:38;;;;;;;22.10;13.72;;;;;;;2.17;85.47;99914.07;1695001;84;20930;-83
2022/01/01 07:36:05;;;;;;;13.75;11.12;;;;;;;2.18;85.36;99917.06;1694633;84;20970;-82
2022/01/01 07:38:32;;;;;;;11.73;8.88;;;;;;;2.20;85.26;99920.45;1694577;84;20955;-81
2022/01/01 07:40:58;;;;;;;10.03;7.62;;;;;;;2.24;85.17;99919.86;1756219;77;21261;-81
2022/01/01 07:43:29;;;;;;;24.75;15.83;;;;;;;2.24;85.17;99915.52;1820015;78;20867;-81
2022/01/01 07:45:55;;;;;;;15.85;11.35;;;;;;;2.26;85.28;99909.02;1820318;78;21392;-81
2022/01/01 07:48:22;;;;;;;14.03;10.35;;;;;;;2.31;85.39;99906.25;1820023;77;20884;-82
2022/01/01 07:50:49;;;;;;;16.60;12.70;;;;;;;2.36;85.54;99905.19;1820346;78;20899;-82
2022/01/01 07:53:16;;;;;;;19.07;12.53;;;;;;;2.42;85.60;99907.55;1820253;77;21134;-83
2022/01/01 07:55:42;;;;;;;22.42;16.97;;;;;;;2.46;85.57;99904.38;1820414;78;20959;-81
2022/01/01 07:58:09;;;;;;;17.42;12.53;;;;;;;2.52;85.52;99909.33;1820096;78;20868;-80
2022/01/01 08:00:36;;;;;;;17.92;10.58;;;;;;;2.55;85.49;99903.19;1820342;77;21516;-82
2022/01/01 08:03:04;;;;;;;16.05;12.35;;;;;;;2.58;85.51;99900.04;1820163;78;21041;-85
2022/01/01 08:05:31;;;;;;;15.25;10.08;;;;;;;2.59;85.29;99898.28;1820573;78;21097;-84
2022/01/01 08:07:58;;;;;;;16.48;11.50;;;;;;;2.63;85.24;99901.98;1820751;78;20947;-82
2022/01/01 08:10:27;;;;;;;17.25;11.12;;;;;;;2.66;85.23;99903.61;1822809;78;20919;-83
2022/01/01 08:12:54;;;;;;;18.32;13.20;;;;;;;2.68;85.23;99896.63;1821931;78;20927;-84
2022/01/01 08:15:22;;;;;;;16.93;11.73;;;;;;;2.74;85.30;99896.86;1822711;78;20892;-85
2022/01/01 08:17:48;;;;;;;15.58;11.43;;;;;;;2.80;85.23;99902.64;1821582;78;22458;-83
2022/01/01 08:20:19;;;;;;;17.80;11.93;;;;;;;2.85;85.29;99904.58;1821488;78;20939;-84
2022/01/01 08:22:45;;;;;;;16.35;11.57;;;;;;;2.92;85.23;99900.46;1821077;77;21455;-86
2022/01/01 08:25:12;;;;;;;17.60;12.40;;;;;;;2.95;85.12;99899.03;1820385;77;20848;-87
2022/01/01 08:27:39;;;;;;;20.72;14.28;;;;;;;2.98;85.09;99890.70;1820264;78;21378;-78
2022/01/01 08:30:07;;;;;;;20.77;14.05;;;;;;;3.03;85.09;99883.57;1820379;77;21108;-86
2022/01/01 08:32:36;;;;;;;18.32;12.35;;;;;;;3.07;84.93;99881.72;1819923;78;21436;-82
2022/01/01 08:35:04;;;;;;;20.05;12.93;;;;;;;3.09;84.75;99877.28;1820319;78;20979;-81
2022/01/01 08:37:31;;;;;;;16.77;12.03;;;;;;;3.09;84.69;99872.97;1820131;78;20905;-83
2022/01/01 08:39:58;;;;;;;15.95;11.28;;;;;;;3.11;84.72;99872.45;1820201;78;21416;-82
2022/01/01 08:42:25;;;;;;;19.65;13.72;;;;;;;3.13;84.73;99868.95;1820171;78;21123;-84
2022/01/01 08:44:52;;;;;;;19.57;15.00;;;;;;;3.10;84.70;99872.05;1789964;79;21397;-84
2022/01/01 08:47:24;;;;;;;18.12;12.50;;;;;;;3.10;84.77;99881.11;1790031;79;20978;-82
2022/01/01 08:49:52;;;;;;;18.25;12.65;;;;;;;3.11;84.84;99878.93;1819307;77;20867;-83
2022/01/01 08:52:17;;;;;;;20.20;14.47;;;;;;;3.16;84.96;99883.05;1819341;77;20919;-85
2022/01/01 08:54:44;;;;;;;19.20;14.53;;;;;;;3.17;85.00;99871.80;1820346;78;22005;-86
2022/01/01 08:57:12;;;;;;;62.98;31.87;;;;;;;3.21;85.07;99877.25;1822430;77;20836;-89
2022/01/01 08:59:38;;;;;;;90.20;46.88;;;;;;;3.25;85.06;99877.52;1821157;78;20844;-87
2022/01/01 09:02:05;;;;;;;119.45;59.95;;;;;;;3.26;84.96;99880.02;1819113;77;21381;-87
2022/01/01 09:04:33;;;;;;;29.30;23.20;;;;;;;3.26;85.00;99871.41;1819112;77;20982;-86
2022/01/01 09:07:00;;;;;;;29.95;24.20;;;;;;;3.28;85.05;99862.66;1819388;78;21128;-86
2022/01/01 09:09:27;;;;;;;26.05;19.17;;;;;;;3.30;85.09;99865.20;1819902;77;21397;-83
2022/01/01 09:11:54;;;;;;;26.52;17.87;;;;;;;3.32;85.06;99872.45;1820278;77;20986;-90
2022/01/01 09:14:23;;;;;;;15.60;11.30;;;;;;;3.34;85.08;99865.47;1819991;78;20907;-82
2022/01/01 09:16:49;;;;;;;15.98;12.47;;;;;;;3.37;85.11;99867.08;1819474;78;20883;-83
2022/01/01 09:19:19;;;;;;;14.43;10.18;;;;;;;3.40;85.06;99865.21;1819734;77;21101;-83
2022/01/01 09:21:47;;;;;;;13.40;9.88;;;;;;;3.41;84.83;99860.86;1819405;78;20943;-82
2022/01/01 09:24:16;;;;;;;14.73;10.20;;;;;;;3.40;84.92;99870.39;1819079;78;20963;-83
2022/01/01 09:26:45;;;;;;;12.35;9.20;;;;;;;3.42;84.84;99866.42;1819018;77;21405;-82
2022/01/01 09:29:13;;;;;;;14.87;10.75;;;;;;;3.42;84.77;99852.16;1819238;77;20986;-81
2022/01/01 09:31:43;;;;;;;15.32;11.43;;;;;;;3.42;84.66;99870.31;1819130;78;21173;-82
2022/01/01 09:34:11;;;;;;;15.85;12.47;;;;;;;3.40;84.70;99861.75;1819178;78;20896;-82
2022/01/01 09:36:38;;;;;;;17.45;11.70;;;;;;;3.39;84.56;99869.16;1819143;79;20911;-83
2022/01/01 09:39:05;;;;;;;16.82;12.00;;;;;;;3.41;84.59;99864.75;1818929;78;21539;-81
2022/01/01 09:41:33;;;;;;;22.58;15.03;;;;;;;3.43;84.66;99857.30;1819278;77;20884;-82
2022/01/01 09:43:59;;;;;;;20.55;14.13;;;;;;;3.43;84.55;99857.75;1820140;78;21056;-83
2022/01/01 09:46:27;;;;;;;20.17;13.88;;;;;;;3.43;84.63;99857.30;1820247;78;21460;-81
2022/01/01 09:48:54;;;;;;;16.42;12.53;;;;;;;3.46;84.65;99854.56;1819981;77;20848;-82
2022/01/01 09:51:23;;;;;;;14.45;11.15;;;;;;;3.48;84.66;99848.86;1820025;77;20935;-82
2022/01/01 09:53:52;;;;;;;16.30;12.80;;;;;;;3.52;84.69;99850.88;1820009;77;20965;-82
2022/01/01 09:56:20;;;;;;;16.07;12.13;;;;;;;3.56;84.67;99852.43;1820064;77;21191;-81
2022/01/01 09:58:48;;;;;;;17.10;12.35;;;;;;;3.63;84.77;99850.41;1819822;77;21350;-82
2022/01/01 10:01:15;;;;;;;19.02;13.08;;;;;;;3.68;84.65;99846.69;1819694;78;20958;-89
2022/01/01 10:03:45;;;;;;;17.23;12.68;;;;;;;3.74;84.68;99844.30;1820027;78;20966;-86
2022/01/01 10:06:20;;;;;;;19.50;12.93;;;;;;;3.81;84.69;99837.09;1820038;78;21006;-84
2022/01/01 10:09:03;;;;;;;17.60;13.20;;;;;;;3.85;84.61;99847.25;1820605;77;21420;-88
2022/01/01 10:11:30;;;;;;;17.37;12.70;;;;;;;3.90;84.60;99845.28;1820433;77;20824;-78
2022/01/01 10:13:59;;;;;;;15.95;12.63;;;;;;;3.99;84.61;99836.25;1819883;78;20970;-78
2022/01/01 10:16:27;;;;;;;16.97;12.55;;;;;;;4.04;84.39;99839.92;1820145;78;20974;-77
2022/01/01 10:18:54;;;;;;;16.90;13.08;;;;;;;4.09;84.39;99844.02;1820933;78;20942;-76
2022/01/01 10:21:26;;;;;;;21.25;15.25;;;;;;;4.14;84.40;99835.55;1822555;78;21137;-79
2022/01/01 10:23:55;;;;;;;26.07;15.30;;;;;;;4.19;84.32;99840.98;1821219;78;20895;-78
2022/01/01 10:29:28;;;;;;;25.43;18.05;;;;;;;4.27;84.39;99829.34;1820237;78;20954;-78
2022/01/01 10:32:06;;;;;;;27.67;18.67;;;;;;;4.34;84.51;99833.33;1820064;78;20916;-78
2022/01/01 10:34:38;;;;;;;35.28;20.97;;;;;;;4.37;84.50;99825.84;1820029;78;20860;-77
2022/01/01 10:37:06;;;;;;;34.95;22.60;;;;;;;4.42;84.72;99824.33;1820081;78;20966;-79
2022/01/01 10:39:33;;;;;;;40.45;24.23;;;;;;;4.47;84.77;99827.11;1820102;77;20955;-79
2022/01/01 10:42:03;;;;;;;39.18;23.95;;;;;;;4.55;84.94;99829.32;1819738;78;20938;-78
2022/01/01 10:44:41;;;;;;;45.73;25.43;;;;;;;4.65;84.85;99820.66;1819840;78;20907;-79
2022/01/01 10:47:19;;;;;;;47.05;28.45;;;;;;;4.67;84.54;99827.88;1819320;78;20916;-77
2022/01/01 10:52:29;;;;;;;50.70;31.17;;;;;;;4.75;84.80;99821.41;1819581;78;20963;-81
2022/01/01 10:54:59;;;;;;;61.63;37.28;;;;;;;4.78;84.81;99818.67;1820412;78;20950;-81
2022/01/01 10:57:35;;;;;;;69.25;38.28;;;;;;;4.87;84.90;99820.41;1820866;77;20919;-80
2022/01/01 11:00:22;;;;;;;66.15;37.08;;;;;;;4.92;84.77;99817.98;1820290;78;21153;-80
2022/01/01 11:02:57;;;;;;;63.87;35.88;;;;;;;5.00;84.85;99818.89;1820018;78;20974;-80
2022/01/01 11:05:33;;;;;;;56.83;37.13;;;;;;;5.09;84.84;99817.59;1819998;78;20915;-80
2022/01/01 11:08:00;;;;;;;64.12;36.00;;;;;;;5.19;84.94;99822.72;1820237;78;20887;-81
2022/01/01 11:10:28;;;;;;;60.15;33.45;;;;;;;5.28;84.89;99814.45;1820209;77;20931;-79
2022/01/01 11:12:56;;;;;;;52.10;34.50;;;;;;;5.36;84.74;99812.77;1819737;78;21352;-80
2022/01/01 11:15:23;;;;;;;52.88;34.53;;;;;;;5.42;84.56;99815.03;1820538;78;21492;-82
2022/01/01 11:17:50;;;;;;;55.65;35.45;;;;;;;5.50;84.61;99814.19;1820295;77;20927;-84
2022/01/01 11:20:20;;;;;;;60.52;36.05;;;;;;;5.58;84.63;99819.84;1819774;78;20999;-80
2022/01/01 11:22:49;;;;;;;58.80;35.25;;;;;;;5.69;84.40;99821.88;1819999;78;20919;-82
2022/01/01 11:25:18;;;;;;;62.78;35.20;;;;;;;5.74;84.15;99828.97;1819971;77;20923;-80
2022/01/01 11:27:46;;;;;;;50.98;32.75;;;;;;;5.76;83.81;99825.00;1820094;78;20899;-82
2022/01/01 11:30:14;;;;;;;53.15;33.80;;;;;;;5.75;83.71;99829.34;1819978;78;20947;-82
2022/01/01 11:33:14;;;;;;;57.23;32.73;;;;;;;5.80;83.73;99840.36;1820011;78;20860;-84
2022/01/01 11:35:46;;;;;;;32.45;23.00;;;;;;;5.85;83.59;99832.31;1820020;77;20931;-78
2022/01/01 11:38:15;;;;;;;32.13;18.65;;;;;;;5.83;83.00;99844.56;1819183;78;21538;-77